sensor_id;sensor_type;location;lat;lon;timestamp;temperature;humidity
1524;DHT22;755;53.658;10.118;2022-08-23T00:06:12;18.90;24.50
1524;DHT22;755;53.658;10.118;2022-08-23T00:16:14;18.70;13.40
1524;DHT22;755;53.658;10.118;2022-08-23T00:26:17;18.60;99.90
1524;DHT22;755;53.658;10.118;2022-08-23T00:36:20;18.50;99.90
1524;DHT22;755;53.658;10.118;2022-08-23T00:46:35;18.40;99.90
1524;DHT22;755;53.658;10.118;2022-08-23T00:57:03;18.40;99.90
1524;DHT22;755;53.658;10.118;2022-08-23T01:07:12;18.40;99.90
1524;DHT22;755;53.658;10.118;2022-08-23T01:17:21;18.40;1.00
1524;DHT22;755;53.658;10.118;2022-08-23T01:27:27;18.40;99.90
1524;DHT22;755;53.658;10.118;2022-08-23T01:37:30;18.40;99.90
1524;DHT22;755;53.658;10.118;2022-08-23T01:47:34;18.30;1.00
1524;DHT22;755;53.658;10.118;2022-08-23T01:57:36;18.30;1.00
1524;DHT22;755;53.658;10.118;2022-08-23T02:07:40;18.30;1.00
1524;DHT22;755;53.658;10.118;2022-08-23T02:17:42;18.30;1.00
1524;DHT22;755;53.658;10.118;2022-08-23T02:27:46;18.30;4.20
1524;DHT22;755;53.658;10.118;2022-08-23T02:37:48;18.30;99.90
1524;DHT22;755;53.658;10.118;2022-08-23T02:47:54;18.20;99.90
1524;DHT22;755;53.658;10.118;2022-08-23T02:57:56;18.10;1.00
1524;DHT22;755;53.658;10.118;2022-08-23T03:08:00;18.00;99.90
1524;DHT22;755;53.658;10.118;2022-08-23T03:18:03;18.00;1.00
1524;DHT22;755;53.658;10.118;2022-08-23T03:28:06;17.90;1.00
1524;DHT22;755;53.658;10.118;2022-08-23T03:38:09;18.00;53.30
1524;DHT22;755;53.658;10.118;2022-08-23T03:48:12;17.90;99.90
1524;DHT22;755;53.658;10.118;2022-08-23T03:58:14;17.90;99.90
1524;DHT22;755;53.658;10.118;2022-08-23T04:08:19;17.90;1.00
1524;DHT22;755;53.658;10.118;2022-08-23T04:18:21;17.80;1.00
1524;DHT22;755;53.658;10.118;2022-08-23T04:28:24;17.70;99.90
1524;DHT22;755;53.658;10.118;2022-08-23T04:38:27;17.70;99.90
1524;DHT22;755;53.658;10.118;2022-08-23T04:48:30;17.70;1.00
1524;DHT22;755;53.658;10.118;2022-08-23T04:58:33;17.70;1.00
1524;DHT22;755;53.658;10.118;2022-08-23T05:08:37;17.80;99.90
1524;DHT22;755;53.658;10.118;2022-08-23T05:18:39;17.80;99.90
1524;DHT22;755;53.658;10.118;2022-08-23T05:28:45;17.80;41.50
1524;DHT22;755;53.658;10.118;2022-08-23T05:38:48;17.80;99.90
1524;DHT22;755;53.658;10.118;2022-08-23T05:48:53;18.00;1.00
1524;DHT22;755;53.658;10.118;2022-08-23T05:58:58;18.30;4.90
1524;DHT22;755;53.658;10.118;2022-08-23T06:09:03;18.80;1.00
1524;DHT22;755;53.658;10.118;2022-08-23T06:19:07;19.10;99.90
1524;DHT22;755;53.658;10.118;2022-08-23T06:29:14;19.20;99.90
1524;DHT22;755;53.658;10.118;2022-08-23T06:39:17;19.60;99.90
1524;DHT22;755;53.658;10.118;2022-08-23T06:49:21;19.80;77.60
1524;DHT22;755;53.658;10.118;2022-08-23T06:59:23;19.70;95.00
1524;DHT22;755;53.658;10.118;2022-08-23T07:09:29;19.50;99.90
1524;DHT22;755;53.658;10.118;2022-08-23T07:19:33;19.30;99.90
1524;DHT22;755;53.658;10.118;2022-08-23T07:29:37;20.00;99.90
1524;DHT22;755;53.658;10.118;2022-08-23T07:39:40;20.40;99.90
1524;DHT22;755;53.658;10.118;2022-08-23T07:49:43;20.90;1.00
1524;DHT22;755;53.658;10.118;2022-08-23T07:59:46;21.40;99.90
1524;DHT22;755;53.658;10.118;2022-08-23T08:09:50;22.00;99.90
1524;DHT22;755;53.658;10.118;2022-08-23T08:19:52;22.30;99.90
1524;DHT22;755;53.658;10.118;2022-08-23T08:29:55;23.10;99.90
1524;DHT22;755;53.658;10.118;2022-08-23T08:39:58;23.80;99.90
1524;DHT22;755;53.658;10.118;2022-08-23T08:50:10;24.80;99.90
1524;DHT22;755;53.658;10.118;2022-08-23T09:00:18;25.20;35.30
1524;DHT22;755;53.658;10.118;2022-08-23T09:10:49;25.60;1.00
1524;DHT22;755;53.658;10.118;2022-08-23T09:20:53;25.90;1.00
1524;DHT22;755;53.658;10.118;2022-08-23T09:31:00;26.70;1.00
1524;DHT22;755;53.658;10.118;2022-08-23T09:41:16;27.20;1.00
1524;DHT22;755;53.658;10.118;2022-08-23T09:51:24;26.80;1.00
1524;DHT22;755;53.658;10.118;2022-08-23T10:01:30;27.10;1.00
1524;DHT22;755;53.658;10.118;2022-08-23T10:11:37;27.60;1.00
1524;DHT22;755;53.658;10.118;2022-08-23T10:21:44;27.40;1.00
1524;DHT22;755;53.658;10.118;2022-08-23T10:31:57;27.80;1.00
1524;DHT22;755;53.658;10.118;2022-08-23T10:42:04;27.00;1.00
1524;DHT22;755;53.658;10.118;2022-08-23T10:52:14;26.60;1.00
1524;DHT22;755;53.658;10.118;2022-08-23T11:02:27;26.20;1.00
1524;DHT22;755;53.658;10.118;2022-08-23T11:12:33;26.60;1.00
1524;DHT22;755;53.658;10.118;2022-08-23T11:23:12;26.40;1.00
1524;DHT22;755;53.658;10.118;2022-08-23T11:33:20;26.50;1.00
1524;DHT22;755;53.658;10.118;2022-08-23T11:43:27;26.50;1.00
1524;DHT22;755;53.658;10.118;2022-08-23T11:53:53;26.60;1.00
1524;DHT22;755;53.658;10.118;2022-08-23T12:04:00;26.70;1.00
1524;DHT22;755;53.658;10.118;2022-08-23T12:14:33;27.00;1.00
1524;DHT22;755;53.658;10.118;2022-08-23T12:24:41;27.40;1.00
1524;DHT22;755;53.658;10.118;2022-08-23T12:34:53;27.40;1.00
1524;DHT22;755;53.658;10.118;2022-08-23T12:45:02;27.50;1.00
1524;DHT22;755;53.658;10.118;2022-08-23T12:55:14;27.60;1.00
1524;DHT22;755;53.658;10.118;2022-08-23T13:05:22;27.80;1.00
1524;DHT22;755;53.658;10.118;2022-08-23T13:15:44;27.90;1.00
1524;DHT22;755;53.658;10.118;2022-08-23T13:25:47;28.00;1.00
1524;DHT22;755;53.658;10.118;2022-08-23T13:35:52;28.40;1.00
1524;DHT22;755;53.658;10.118;2022-08-23T13:46:13;28.30;1.00
1524;DHT22;755;53.658;10.118;2022-08-23T13:56:17;28.80;1.00
1524;DHT22;755;53.658;10.118;2022-08-23T14:06:20;28.70;1.00
1524;DHT22;755;53.658;10.118;2022-08-23T14:16:27;28.60;1.00
1524;DHT22;755;53.658;10.118;2022-08-23T14:26:30;27.80;99.90
1524;DHT22;755;53.658;10.118;2022-08-23T14:36:33;27.50;99.90
1524;DHT22;755;53.658;10.118;2022-08-23T14:46:35;27.20;99.90
1524;DHT22;755;53.658;10.118;2022-08-23T14:56:38;27.00;99.90
1524;DHT22;755;53.658;10.118;2022-08-23T15:06:40;26.80;99.90
1524;DHT22;755;53.658;10.118;2022-08-23T15:16:44;26.70;99.90
1524;DHT22;755;53.658;10.118;2022-08-23T15:26:46;26.60;99.90
1524;DHT22;755;53.658;10.118;2022-08-23T15:36:50;26.50;99.90
1524;DHT22;755;53.658;10.118;2022-08-23T15:46:53;26.50;99.90
1524;DHT22;755;53.658;10.118;2022-08-23T15:56:56;26.40;99.90
1524;DHT22;755;53.658;10.118;2022-08-23T16:06:59;26.40;99.90
1524;DHT22;755;53.658;10.118;2022-08-23T16:17:03;26.20;99.90
1524;DHT22;755;53.658;10.118;2022-08-23T16:27:06;26.10;99.90
1524;DHT22;755;53.658;10.118;2022-08-23T16:37:10;26.00;99.90
1524;DHT22;755;53.658;10.118;2022-08-23T16:47:12;25.90;99.90
1524;DHT22;755;53.658;10.118;2022-08-23T16:57:16;25.80;99.90
1524;DHT22;755;53.658;10.118;2022-08-23T17:07:18;25.70;99.90
1524;DHT22;755;53.658;10.118;2022-08-23T17:17:22;25.50;99.90
1524;DHT22;755;53.658;10.118;2022-08-23T17:27:24;25.40;99.90
1524;DHT22;755;53.658;10.118;2022-08-23T17:37:28;25.30;99.90
1524;DHT22;755;53.658;10.118;2022-08-23T17:47:30;25.10;99.90
1524;DHT22;755;53.658;10.118;2022-08-23T17:57:34;24.90;1.00
1524;DHT22;755;53.658;10.118;2022-08-23T18:07:36;24.70;1.00
1524;DHT22;755;53.658;10.118;2022-08-23T18:17:40;24.40;1.00
1524;DHT22;755;53.658;10.118;2022-08-23T18:27:43;24.30;1.00
1524;DHT22;755;53.658;10.118;2022-08-23T18:38:05;24.10;1.00
1524;DHT22;755;53.658;10.118;2022-08-23T18:48:09;23.80;1.00
1524;DHT22;755;53.658;10.118;2022-08-23T18:58:14;23.50;1.00
1524;DHT22;755;53.658;10.118;2022-08-23T19:08:17;23.10;1.00
1524;DHT22;755;53.658;10.118;2022-08-23T19:18:22;22.80;1.00
1524;DHT22;755;53.658;10.118;2022-08-23T19:28:26;22.60;1.00
1524;DHT22;755;53.658;10.118;2022-08-23T19:38:48;22.20;1.00
1524;DHT22;755;53.658;10.118;2022-08-23T19:49:02;22.00;1.00
1524;DHT22;755;53.658;10.118;2022-08-23T19:59:09;21.80;1.00
1524;DHT22;755;53.658;10.118;2022-08-23T20:09:12;21.60;1.00
1524;DHT22;755;53.658;10.118;2022-08-23T20:19:17;21.40;1.00
1524;DHT22;755;53.658;10.118;2022-08-23T20:29:26;21.20;1.00
1524;DHT22;755;53.658;10.118;2022-08-23T20:39:30;21.00;1.00
1524;DHT22;755;53.658;10.118;2022-08-23T20:49:32;21.00;1.00
1524;DHT22;755;53.658;10.118;2022-08-23T20:59:36;20.80;1.00
1524;DHT22;755;53.658;10.118;2022-08-23T21:09:39;20.60;1.00
1524;DHT22;755;53.658;10.118;2022-08-23T21:19:42;20.30;99.90
1524;DHT22;755;53.658;10.118;2022-08-23T21:29:44;20.20;99.90
1524;DHT22;755;53.658;10.118;2022-08-23T21:39:47;19.90;99.90
1524;DHT22;755;53.658;10.118;2022-08-23T21:49:50;19.80;1.00
1524;DHT22;755;53.658;10.118;2022-08-23T21:59:57;19.70;99.90
1524;DHT22;755;53.658;10.118;2022-08-23T22:09:59;19.60;99.90
1524;DHT22;755;53.658;10.118;2022-08-23T22:20:04;19.80;99.90
1524;DHT22;755;53.658;10.118;2022-08-23T22:30:11;19.80;99.90
1524;DHT22;755;53.658;10.118;2022-08-23T22:40:15;19.50;99.90
1524;DHT22;755;53.658;10.118;2022-08-23T22:50:19;19.50;99.90
1524;DHT22;755;53.658;10.118;2022-08-23T23:00:22;19.40;99.90
1524;DHT22;755;53.658;10.118;2022-08-23T23:10:25;19.30;99.90
1524;DHT22;755;53.658;10.118;2022-08-23T23:20:30;19.10;99.90
1524;DHT22;755;53.658;10.118;2022-08-23T23:30:40;19.00;99.90
1524;DHT22;755;53.658;10.118;2022-08-23T23:40:45;18.80;1.00
1524;DHT22;755;53.658;10.118;2022-08-23T23:50:47;18.80;99.90
